Time;durP1;ratioP1;P1;durP2;ratioP2;P2;SDS_P1;SDS_P2;PMS_P1;PMS_P2;Temp;Humidity;BMP_temperature;BMP_pressure;BME280_temperature;BME280_humidity;BME280_pressure;Samples;Min_cycle;Max_cycle;Signal;HPM_P1;HPM_P2
2021/12/10 00:02:19;;;;;;;1.33;1.23;;;;;;;;;;7334413;19;154175;-15
2021/12/10 00:04:51;;;;;;;1.60;1.17;;;;;;;;;;7334340;19;153571;-13
2021/12/10 00:07:27;;;;;;;1.30;1.20;;;;;;;;;;7334063;19;162001;-14
2021/12/10 00:10:03;;;;;;;1.15;1.10;;;;;;;;;;7334863;19;162461;-14
2021/12/10 00:12:37;;;;;;;1.20;1.20;;;;;;;;;;7331561;19;154075;-15
2021/12/10 00:15:10;;;;;;;1.05;1.05;;;;;;;;;;7335986;19;153626;-14
2021/12/10 00:17:41;;;;;;;1.10;1.10;;;;;;;;;;7327079;19;162570;-15
2021/12/10 00:20:14;;;;;;;1.17;1.13;;;;;;;;;;7335148;19;162659;-14
2021/12/10 00:22:55;;;;;;;1.00;1.00;;;;;;;;;;7330312;19;154181;-13
2021/12/10 00:25:35;;;;;;;1.48;1.10;;;;;;;;;;7329769;19;153643;-14
2021/12/10 00:28:16;;;;;;;1.20;1.20;;;;;;;;;;7330617;19;161772;-13
2021/12/10 00:31:02;;;;;;;1.17;1.08;;;;;;;;;;7329500;19;162674;-14
2021/12/10 00:33:38;;;;;;;0.93;0.93;;;;;;;;;;7334139;19;154193;-13
2021/12/10 00:36:10;;;;;;;1.27;1.20;;;;;;;;;;7330933;19;153835;-13
2021/12/10 00:38:44;;;;;;;1.10;1.05;;;;;;;;;;7328692;19;161997;-13
2021/12/10 00:41:17;;;;;;;0.90;0.90;;;;;;;;;;7330106;19;162542;-13
2021/12/10 00:43:49;;;;;;;0.97;0.93;;;;;;;;;;7331035;19;153879;-14
2021/12/10 00:46:20;;;;;;;0.82;0.82;;;;;;;;;;7329165;19;153682;-15
2021/12/10 00:48:51;;;;;;;0.77;0.77;;;;;;;;;;7331929;19;162076;-14
2021/12/10 00:51:23;;;;;;;0.90;0.90;;;;;;;;;;7334263;19;162522;-14
2021/12/10 00:53:57;;;;;;;0.90;0.90;;;;;;;;;;7333718;19;153999;-14
2021/12/10 00:56:28;;;;;;;1.13;1.02;;;;;;;;;;7330207;19;153602;-14
2021/12/10 00:59:00;;;;;;;0.90;0.90;;;;;;;;;;7329691;19;161859;-15
2021/12/10 01:01:35;;;;;;;0.82;0.82;;;;;;;;;;7329572;19;162343;-15
2021/12/10 01:04:10;;;;;;;1.10;1.10;;;;;;;;;;7329715;19;154301;-13
2021/12/10 01:06:44;;;;;;;1.10;1.00;;;;;;;;;;7328562;19;153589;-14
2021/12/10 01:09:23;;;;;;;0.90;0.90;;;;;;;;;;7329507;19;161819;-14
2021/12/10 01:11:59;;;;;;;0.98;0.98;;;;;;;;;;7329155;19;162586;-13
2021/12/10 01:14:51;;;;;;;1.08;1.08;;;;;;;;;;7331072;19;154091;-15
2021/12/10 01:26:06;;;;;;;0.82;0.82;;;;;;;;;;7328150;19;153994;-13
2021/12/10 01:28:39;;;;;;;0.80;0.80;;;;;;;;;;7327422;19;153726;-14
2021/12/10 01:31:11;;;;;;;0.93;0.93;;;;;;;;;;7328376;19;162023;-14
2021/12/10 01:33:44;;;;;;;0.80;0.80;;;;;;;;;;7330591;19;162376;-16
2021/12/10 01:36:16;;;;;;;0.70;0.70;;;;;;;;;;7329900;19;154006;-15
2021/12/10 01:38:50;;;;;;;0.80;0.80;;;;;;;;;;7328443;19;153524;-14
2021/12/10 01:41:29;;;;;;;0.90;0.90;;;;;;;;;;7329817;19;162001;-14
2021/12/10 01:44:04;;;;;;;1.58;1.48;;;;;;;;;;7330451;19;162358;-16
2021/12/10 01:46:38;;;;;;;2.08;1.95;;;;;;;;;;7325604;19;153975;-14
2021/12/10 01:49:12;;;;;;;1.77;1.67;;;;;;;;;;7331788;19;153550;-14
2021/12/10 01:51:45;;;;;;;1.70;1.60;;;;;;;;;;7335056;19;163188;-14
2021/12/10 01:54:20;;;;;;;1.88;1.60;;;;;;;;;;7333962;19;162460;-15
2021/12/10 01:56:57;;;;;;;1.88;1.65;;;;;;;;;;7333346;19;154220;-13
2021/12/10 01:59:31;;;;;;;1.60;1.50;;;;;;;;;;7335574;19;153507;-13
2021/12/10 02:02:06;;;;;;;1.33;1.33;;;;;;;;;;7336480;19;161869;-14
2021/12/10 02:04:40;;;;;;;1.30;1.20;;;;;;;;;;7334717;19;162681;-14
2021/12/10 11:08:47;;;;;;;3.15;0.90;;;;;;;;;;7370393;19;132501;-14
2021/12/10 11:11:22;;;;;;;0.60;0.60;;;;;;;;;;7364791;19;153493;-15
2021/12/10 11:14:04;;;;;;;0.50;0.50;;;;;;;;;;7364224;19;162113;-14
2021/12/10 11:16:38;;;;;;;0.65;0.60;;;;;;;;;;7363214;19;162656;-15
2021/12/10 11:19:12;;;;;;;0.95;0.80;;;;;;;;;;7364646;19;154383;-14
2021/12/10 11:21:47;;;;;;;0.70;0.70;;;;;;;;;;7365437;19;153489;-14
2021/12/10 11:24:26;;;;;;;0.52;0.50;;;;;;;;;;7367079;19;161804;-13
2021/12/10 11:27:02;;;;;;;0.63;0.63;;;;;;;;;;7363866;19;162367;-13
2021/12/10 11:29:43;;;;;;;0.73;0.70;;;;;;;;;;7364151;19;153994;-13
2021/12/10 11:32:17;;;;;;;2.00;0.80;;;;;;;;;;7364106;19;153541;-13
2021/12/10 11:34:52;;;;;;;0.80;0.80;;;;;;;;;;7365357;19;161883;-12
2021/12/10 11:37:47;;;;;;;0.50;0.50;;;;;;;;;;7362601;19;162415;-13
2021/12/10 11:40:49;;;;;;;1.23;0.73;;;;;;;;;;7363858;19;154162;-13
2021/12/10 11:46:44;;;;;;;0.70;0.70;;;;;;;;;;7363247;19;161828;-13
2021/12/10 11:49:21;;;;;;;0.60;0.60;;;;;;;;;;7363086;19;162140;-13
2021/12/10 11:51:58;;;;;;;0.60;0.60;;;;;;;;;;7363477;19;153936;-14
2021/12/10 11:54:36;;;;;;;0.77;0.70;;;;;;;;;;7364678;19;153611;-13
2021/12/10 11:57:14;;;;;;;0.80;0.80;;;;;;;;;;7362303;19;162068;-12
2021/12/10 11:59:50;;;;;;;0.65;0.65;;;;;;;;;;7362909;19;162435;-12
2021/12/10 12:02:25;;;;;;;0.40;0.40;;;;;;;;;;7363346;19;154352;-13
2021/12/10 12:05:01;;;;;;;1.73;0.82;;;;;;;;;;7363579;19;153532;-12
2021/12/10 12:07:38;;;;;;;1.88;1.10;;;;;;;;;;7358748;19;161983;-13
2021/12/10 12:10:20;;;;;;;1.08;0.90;;;;;;;;;;7336262;19;162755;-12
2021/12/10 12:12:58;;;;;;;0.80;0.80;;;;;;;;;;7337910;19;154031;-12
2021/12/10 12:15:33;;;;;;;1.15;1.05;;;;;;;;;;7336783;19;153525;-12
2021/12/10 12:18:07;;;;;;;1.15;0.80;;;;;;;;;;7331897;19;161870;-13
2021/12/10 12:20:46;;;;;;;0.68;0.60;;;;;;;;;;7333637;19;162403;-12
2021/12/10 12:26:07;;;;;;;0.70;0.70;;;;;;;;;;7337685;19;153510;-12
2021/12/10 12:28:44;;;;;;;0.70;0.70;;;;;;;;;;7333115;19;161859;-13
2021/12/10 12:31:19;;;;;;;1.25;0.80;;;;;;;;;;7337306;19;162560;-14
2021/12/10 12:34:10;;;;;;;0.75;0.73;;;;;;;;;;7333761;19;153979;-15
2021/12/10 12:36:44;;;;;;;1.20;0.80;;;;;;;;;;7337749;19;153778;-13
2021/12/10 12:39:27;;;;;;;0.70;0.70;;;;;;;;;;7333091;19;162120;-12
2021/12/10 12:42:00;;;;;;;;;;;;;;;;;;7333516;19;162357;-12
2021/12/10 12:44:35;;;;;;;0.85;0.73;;;;;;;;;;7335178;19;153851;-13
2021/12/10 12:47:13;;;;;;;0.80;0.80;;;;;;;;;;7336847;19;153727;-13
2021/12/10 12:50:00;;;;;;;0.63;0.63;;;;;;;;;;7332641;19;161921;-12
2021/12/10 12:52:39;;;;;;;0.85;0.85;;;;;;;;;;7333673;19;162462;-12
2021/12/10 12:55:21;;;;;;;0.93;0.90;;;;;;;;;;7334333;19;153951;-13
2021/12/10 12:57:56;;;;;;;0.73;0.70;;;;;;;;;;7332266;19;153595;-12
2021/12/10 13:00:36;;;;;;;0.80;0.80;;;;;;;;;;7332555;19;162042;-12
2021/12/10 13:03:11;;;;;;;0.85;0.85;;;;;;;;;;7332160;19;162419;-13
2021/12/10 13:05:47;;;;;;;0.88;0.80;;;;;;;;;;7335437;19;154108;-13
2021/12/10 13:08:21;;;;;;;0.93;0.65;;;;;;;;;;7329853;19;153521;-13
2021/12/10 13:11:18;;;;;;;0.88;0.68;;;;;;;;;;7334399;19;161984;-13
2021/12/10 13:13:53;;;;;;;1.10;1.00;;;;;;;;;;7332146;19;162570;-11
2021/12/10 13:16:42;;;;;;;1.30;0.90;;;;;;;;;;7336837;19;153996;-14
2021/12/10 13:19:17;;;;;;;0.77;0.77;;;;;;;;;;7329307;19;153542;-13
2021/12/10 13:22:07;;;;;;;0.77;0.77;;;;;;;;;;7331494;19;162371;-13
2021/12/10 13:24:40;;;;;;;1.45;1.05;;;;;;;;;;7331941;19;162609;-12
2021/12/10 13:27:13;;;;;;;1.05;0.95;;;;;;;;;;7331851;19;154061;-13
2021/12/10 13:29:53;;;;;;;5.55;4.93;;;;;;;;;;7332020;19;153533;-15
2021/12/10 13:32:27;;;;;;;9.20;6.40;;;;;;;;;;7331069;19;161924;-14
2021/12/10 13:34:59;;;;;;;8.15;6.25;;;;;;;;;;7333680;19;162630;-13
2021/12/10 13:37:31;;;;;;;8.15;6.10;;;;;;;;;;7331535;19;154089;-13
2021/12/10 13:40:04;;;;;;;5.65;5.10;;;;;;;;;;7331741;19;153634;-13
2021/12/10 13:42:35;;;;;;;7.13;5.07;;;;;;;;;;7330086;19;161659;-14
2021/12/10 13:45:08;;;;;;;6.40;4.72;;;;;;;;;;7332696;19;162628;-14
2021/12/10 13:47:50;;;;;;;6.03;3.58;;;;;;;;;;7331714;19;154098;-14
2021/12/10 13:50:26;;;;;;;4.97;4.30;;;;;;;;;;7331750;19;153886;-13
2021/12/10 13:53:00;;;;;;;5.88;3.60;;;;;;;;;;7331333;19;161818;-14
2021/12/10 13:55:37;;;;;;;4.80;3.67;;;;;;;;;;7333553;19;162638;-15
2021/12/10 13:58:23;;;;;;;3.95;3.47;;;;;;;;;;7330706;19;154219;-13
2021/12/10 14:00:59;;;;;;;3.50;3.20;;;;;;;;;;7331355;19;153543;-14
2021/12/10 14:03:52;;;;;;;4.97;3.67;;;;;;;;;;7331111;19;162176;-19
2021/12/10 14:06:44;;;;;;;4.45;3.67;;;;;;;;;;7333712;19;162371;-14
2021/12/10 14:09:31;;;;;;;3.72;3.33;;;;;;;;;;7334566;19;153918;-13
2021/12/10 14:12:30;;;;;;;3.83;3.38;;;;;;;;;;7332500;19;153349;-13
2021/12/10 14:15:10;;;;;;;3.42;3.13;;;;;;;;;;7332461;19;161889;-13
2021/12/10 14:17:46;;;;;;;4.13;3.38;;;;;;;;;;7334759;19;162492;-14
2021/12/10 14:20:24;;;;;;;3.63;3.30;;;;;;;;;;7328973;19;154131;-14
2021/12/10 14:22:58;;;;;;;3.80;3.40;;;;;;;;;;7335142;19;154562;-14
2021/12/10 14:25:36;;;;;;;3.10;2.90;;;;;;;;;;7331824;19;161839;-15
2021/12/10 14:28:10;;;;;;;3.20;2.90;;;;;;;;;;7335027;19;162407;-15
2021/12/10 14:30:45;;;;;;;3.95;3.05;;;;;;;;;;7330236;19;153832;-13
2021/12/10 14:33:26;;;;;;;4.32;3.22;;;;;;;;;;7335138;19;153533;-13
2021/12/10 14:36:07;;;;;;;15.13;6.22;;;;;;;;;;7334834;19;161977;-12
2021/12/10 14:38:49;;;;;;;10.52;4.50;;;;;;;;;;7329784;19;162477;-14
2021/12/10 14:41:25;;;;;;;10.23;4.88;;;;;;;;;;7328606;19;154068;-13
2021/12/10 14:44:00;;;;;;;7.80;5.18;;;;;;;;;;7333487;19;153736;-14
2021/12/10 14:46:40;;;;;;;7.28;4.57;;;;;;;;;;7333627;19;162122;-14
2021/12/10 14:49:23;;;;;;;7.00;4.22;;;;;;;;;;7330013;19;162502;-14
2021/12/10 14:52:17;;;;;;;5.75;3.25;;;;;;;;;;7330365;19;153994;-13
2021/12/10 14:55:04;;;;;;;4.50;3.40;;;;;;;;;;7329969;19;153932;-13
2021/12/10 14:57:53;;;;;;;4.97;2.88;;;;;;;;;;7329537;19;161570;-15
2021/12/10 15:00:40;;;;;;;5.78;3.22;;;;;;;;;;7327397;19;162942;-14
2021/12/10 15:03:15;;;;;;;2.58;2.38;;;;;;;;;;7329931;19;154093;-14
2021/12/10 15:05:51;;;;;;;6.00;2.65;;;;;;;;;;7329959;19;153591;-13
2021/12/10 15:08:46;;;;;;;3.97;2.67;;;;;;;;;;7326906;19;161892;-14
2021/12/10 15:11:27;;;;;;;5.07;2.70;;;;;;;;;;7329390;19;162335;-13
2021/12/10 15:14:14;;;;;;;4.85;2.20;;;;;;;;;;7329822;19;154152;-13
2021/12/10 15:16:50;;;;;;;3.83;2.28;;;;;;;;;;7329760;19;153512;-14
2021/12/10 15:19:27;;;;;;;2.72;2.13;;;;;;;;;;7328229;19;161944;-13
2021/12/10 15:22:02;;;;;;;3.83;1.90;;;;;;;;;;7328908;19;162342;-13
2021/12/10 15:24:43;;;;;;;4.05;1.88;;;;;;;;;;7329218;19;154234;-13
2021/12/10 15:27:17;;;;;;;3.25;2.28;;;;;;;;;;7330292;19;153813;-13
2021/12/10 15:29:53;;;;;;;2.30;1.83;;;;;;;;;;7328588;19;161976;-13
2021/12/10 15:32:27;;;;;;;2.58;2.00;;;;;;;;;;7328644;19;162170;-12
2021/12/10 15:35:13;;;;;;;1.58;1.48;;;;;;;;;;7329097;19;154279;-13
2021/12/10 15:37:47;;;;;;;1.85;1.45;;;;;;;;;;7328862;19;153690;-13
2021/12/10 15:40:25;;;;;;;2.40;1.70;;;;;;;;;;7326953;19;162024;-13
2021/12/10 15:43:00;;;;;;;2.17;1.67;;;;;;;;;;7328389;19;162525;-14
2021/12/10 15:45:40;;;;;;;1.80;1.48;;;;;;;;;;7335786;19;153955;-14
2021/12/10 15:48:14;;;;;;;2.35;1.75;;;;;;;;;;7335662;19;153508;-13
2021/12/10 15:50:50;;;;;;;2.08;1.50;;;;;;;;;;7335147;19;162195;-14
2021/12/10 15:53:23;;;;;;;3.83;1.55;;;;;;;;;;7338169;19;162304;-12
2021/12/10 15:56:03;;;;;;;2.17;1.30;;;;;;;;;;7338728;19;153963;-13
2021/12/10 15:58:37;;;;;;;3.10;1.27;;;;;;;;;;7337878;19;153764;-14
2021/12/10 16:01:13;;;;;;;2.05;1.33;;;;;;;;;;7332802;19;162190;-15
2021/12/10 16:03:50;;;;;;;2.35;1.65;;;;;;;;;;7334898;19;162415;-14
2021/12/10 16:06:22;;;;;;;1.65;1.15;;;;;;;;;;7333537;19;154027;-13
2021/12/10 16:09:01;;;;;;;1.42;1.13;;;;;;;;;;7335044;19;153488;-15
2021/12/10 16:11:36;;;;;;;1.42;1.10;;;;;;;;;;7334751;19;161831;-14
2021/12/10 16:14:08;;;;;;;2.55;1.58;;;;;;;;;;7334407;19;162399;-13
2021/12/10 16:16:44;;;;;;;1.95;1.42;;;;;;;;;;7334930;19;153960;-13
2021/12/10 16:19:19;;;;;;;1.55;1.40;;;;;;;;;;7333638;19;153746;-13
2021/12/10 16:21:54;;;;;;;2.75;1.48;;;;;;;;;;7334351;19;161760;-13
2021/12/10 16:24:29;;;;;;;1.30;1.20;;;;;;;;;;7333028;19;162396;-12
2021/12/10 16:27:06;;;;;;;2.55;1.27;;;;;;;;;;7334497;19;154065;-14
2021/12/10 16:29:43;;;;;;;1.77;1.20;;;;;;;;;;7334449;19;153655;-14
2021/12/10 16:32:18;;;;;;;1.30;1.13;;;;;;;;;;7334016;19;161948;-13
2021/12/10 16:34:57;;;;;;;1.45;1.23;;;;;;;;;;7333791;19;162374;-14
2021/12/10 16:37:30;;;;;;;1.27;1.00;;;;;;;;;;7334314;19;154180;-13
2021/12/10 16:40:02;;;;;;;1.92;1.27;;;;;;;;;;7332560;19;153533;-13
2021/12/10 16:42:36;;;;;;;2.07;1.50;;;;;;;;;;7333859;19;161533;-13
2021/12/10 16:45:09;;;;;;;1.40;1.30;;;;;;;;;;7333610;19;162341;-13
2021/12/10 16:47:41;;;;;;;;;;;;;;;;;;7334415;19;154065;-13
2021/12/10 16:50:13;;;;;;;2.95;1.58;;;;;;;;;;7334098;19;153368;-13
2021/12/10 16:52:44;;;;;;;1.30;1.10;;;;;;;;;;7334854;19;161789;-13
2021/12/10 16:55:19;;;;;;;1.75;1.50;;;;;;;;;;7333050;19;162402;-13
2021/12/10 16:57:55;;;;;;;3.03;1.55;;;;;;;;;;7333652;19;153920;-14
2021/12/10 17:00:32;;;;;;;2.50;1.25;;;;;;;;;;7332789;19;153636;-17
2021/12/10 17:03:15;;;;;;;1.70;1.33;;;;;;;;;;7333101;19;162169;-13
2021/12/10 17:05:47;;;;;;;1.15;1.00;;;;;;;;;;7336368;19;162471;-15
2021/12/10 17:08:21;;;;;;;1.45;1.23;;;;;;;;;;7330726;19;154124;-14
2021/12/10 17:11:00;;;;;;;1.55;1.25;;;;;;;;;;7333133;19;153520;-14
2021/12/10 17:13:40;;;;;;;1.15;1.05;;;;;;;;;;7332856;19;161822;-13
2021/12/10 17:16:15;;;;;;;1.52;1.17;;;;;;;;;;7332741;19;162650;-13
2021/12/10 17:18:47;;;;;;;1.23;0.90;;;;;;;;;;7333372;19;153954;-15
2021/12/10 17:21:24;;;;;;;1.48;1.20;;;;;;;;;;7331290;19;153505;-14
2021/12/10 17:23:57;;;;;;;1.30;1.20;;;;;;;;;;7332599;19;161812;-14
2021/12/10 17:26:33;;;;;;;1.30;1.20;;;;;;;;;;7334585;19;162597;-12
2021/12/10 17:29:10;;;;;;;1.00;0.90;;;;;;;;;;7332910;19;154084;-15
2021/12/10 17:31:46;;;;;;;0.85;0.85;;;;;;;;;;7332691;19;153517;-14
2021/12/10 17:34:23;;;;;;;1.10;1.00;;;;;;;;;;7334457;19;161809;-15
2021/12/10 17:36:58;;;;;;;1.42;0.80;;;;;;;;;;7331976;19;162571;-13
2021/12/10 17:39:33;;;;;;;0.95;0.90;;;;;;;;;;7332346;19;154036;-14
2021/12/10 17:42:08;;;;;;;1.52;1.15;;;;;;;;;;7330384;19;153613;-14
2021/12/10 17:44:49;;;;;;;1.33;1.10;;;;;;;;;;7331894;19;161909;-16
2021/12/10 17:47:24;;;;;;;1.10;1.00;;;;;;;;;;7330199;19;162436;-12
2021/12/10 17:49:59;;;;;;;0.80;0.80;;;;;;;;;;7332153;19;154041;-13
2021/12/10 17:52:33;;;;;;;1.30;1.10;;;;;;;;;;7331935;19;153526;-13
2021/12/10 17:55:07;;;;;;;1.10;0.90;;;;;;;;;;7331680;19;161976;-12
2021/12/10 17:57:44;;;;;;;1.00;0.90;;;;;;;;;;7330225;19;162448;-13
2021/12/10 18:00:23;;;;;;;0.80;0.80;;;;;;;;;;7331746;19;154330;-12
2021/12/10 18:03:00;;;;;;;0.80;0.80;;;;;;;;;;7328872;19;153818;-12
2021/12/10 18:05:34;;;;;;;1.00;1.00;;;;;;;;;;7330696;19;161838;-12
2021/12/10 18:08:08;;;;;;;1.10;1.00;;;;;;;;;;7328459;19;162505;-13
2021/12/10 18:10:44;;;;;;;0.90;0.90;;;;;;;;;;7331362;19;153951;-13
2021/12/10 18:13:18;;;;;;;0.90;0.90;;;;;;;;;;7331173;19;153902;-14
2021/12/10 18:15:56;;;;;;;0.80;0.80;;;;;;;;;;7330948;19;161814;-12
2021/12/10 18:18:32;;;;;;;0.85;0.85;;;;;;;;;;7329813;19;162711;-13
2021/12/10 18:21:07;;;;;;;0.90;0.90;;;;;;;;;;7330848;19;154482;-13
2021/12/10 18:23:43;;;;;;;1.23;1.08;;;;;;;;;;7331103;19;153709;-13
2021/12/10 18:26:17;;;;;;;0.80;0.80;;;;;;;;;;7330893;19;161806;-13
2021/12/10 18:28:52;;;;;;;1.20;1.10;;;;;;;;;;7330904;19;162518;-13
2021/12/10 18:31:29;;;;;;;1.00;0.90;;;;;;;;;;7331150;19;154135;-13
2021/12/10 18:34:05;;;;;;;2.00;1.30;;;;;;;;;;7330746;19;153824;-13
2021/12/10 18:36:37;;;;;;;2.50;1.30;;;;;;;;;;7330723;19;161912;-13
2021/12/10 18:39:14;;;;;;;1.70;0.90;;;;;;;;;;7333542;19;162502;-13
2021/12/10 18:41:50;;;;;;;1.27;1.10;;;;;;;;;;7330929;19;153965;-13
2021/12/10 18:44:39;;;;;;;1.58;1.00;;;;;;;;;;7333722;19;153546;-14
2021/12/10 18:47:14;;;;;;;1.33;1.13;;;;;;;;;;7332989;19;162060;-14
2021/12/10 18:49:46;;;;;;;2.17;1.30;;;;;;;;;;7333711;19;162372;-14
2021/12/10 18:52:30;;;;;;;1.15;1.05;;;;;;;;;;7330285;19;154275;-14
2021/12/10 18:55:04;;;;;;;0.88;0.88;;;;;;;;;;7330353;19;153557;-15
2021/12/10 18:57:38;;;;;;;1.02;1.00;;;;;;;;;;7328728;19;162145;-14
2021/12/10 19:00:14;;;;;;;1.23;1.10;;;;;;;;;;7330973;19;161939;-15
2021/12/10 19:02:57;;;;;;;1.67;1.00;;;;;;;;;;7332158;19;154265;-14
2021/12/10 19:05:33;;;;;;;0.80;0.80;;;;;;;;;;7328767;19;153707;-15
2021/12/10 19:08:11;;;;;;;1.63;1.00;;;;;;;;;;7326077;19;161946;-14
2021/12/10 19:10:45;;;;;;;1.17;1.08;;;;;;;;;;7329400;19;163307;-14
2021/12/10 19:13:19;;;;;;;1.27;1.17;;;;;;;;;;7326768;19;153987;-13
2021/12/10 19:15:54;;;;;;;0.98;0.73;;;;;;;;;;7328200;19;153788;-14
2021/12/10 19:18:33;;;;;;;1.17;1.00;;;;;;;;;;7331103;19;161933;-13
2021/12/10 19:21:10;;;;;;;2.17;1.00;;;;;;;;;;7335952;19;162350;-13
2021/12/10 19:23:44;;;;;;;1.20;1.10;;;;;;;;;;7334386;19;153906;-14
2021/12/10 19:26:18;;;;;;;1.75;0.73;;;;;;;;;;7336287;19;153957;-13
2021/12/10 19:28:55;;;;;;;1.27;1.17;;;;;;;;;;7335776;19;161703;-13
2021/12/10 19:31:29;;;;;;;2.00;0.90;;;;;;;;;;7335505;19;162567;-12
2021/12/10 19:34:06;;;;;;;1.67;1.10;;;;;;;;;;7335858;19;154181;-13
2021/12/10 19:36:42;;;;;;;1.17;1.08;;;;;;;;;;7336031;19;153436;-13
2021/12/10 19:39:17;;;;;;;0.90;0.90;;;;;;;;;;7335582;19;161996;-21
2021/12/10 19:41:55;;;;;;;0.80;0.80;;;;;;;;;;7335212;19;162351;-14
2021/12/10 19:44:31;;;;;;;1.02;0.88;;;;;;;;;;7335621;19;154061;-28
2021/12/10 19:47:09;;;;;;;1.15;1.02;;;;;;;;;;7335425;19;153608;-13
2021/12/10 19:49:52;;;;;;;1.13;0.90;;;;;;;;;;7334921;19;161882;-13
2021/12/10 19:52:28;;;;;;;0.98;0.88;;;;;;;;;;7335138;19;162456;-13
2021/12/10 19:55:04;;;;;;;1.15;1.00;;;;;;;;;;7335565;19;154105;-13
2021/12/10 19:57:41;;;;;;;0.63;0.63;;;;;;;;;;7335355;19;153684;-13
2021/12/10 20:00:21;;;;;;;0.75;0.70;;;;;;;;;;7334939;19;161991;-13
2021/12/10 20:02:55;;;;;;;0.82;0.80;;;;;;;;;;7332597;19;162379;-12
2021/12/10 20:05:32;;;;;;;0.90;0.90;;;;;;;;;;7335063;19;153795;-13
2021/12/10 20:08:10;;;;;;;1.05;1.00;;;;;;;;;;7332617;19;153621;-12
2021/12/10 20:10:46;;;;;;;0.90;0.90;;;;;;;;;;7334770;19;162100;-14
2021/12/10 20:13:21;;;;;;;1.10;0.90;;;;;;;;;;7334552;19;162484;-14
2021/12/10 20:15:55;;;;;;;0.80;0.80;;;;;;;;;;7334927;19;153978;-14
2021/12/10 20:18:30;;;;;;;1.75;0.85;;;;;;;;;;7333605;19;153384;-13
2021/12/10 20:21:08;;;;;;;0.95;0.90;;;;;;;;;;7334263;19;161697;-14
2021/12/10 20:23:43;;;;;;;0.90;0.90;;;;;;;;;;7332673;19;162678;-14
2021/12/10 20:26:19;;;;;;;0.65;0.65;;;;;;;;;;7334478;19;154157;-15
2021/12/10 20:28:54;;;;;;;0.73;0.70;;;;;;;;;;7333347;19;153530;-13
2021/12/10 20:31:29;;;;;;;0.70;0.70;;;;;;;;;;7333972;19;161832;-13
2021/12/10 20:34:03;;;;;;;0.93;0.90;;;;;;;;;;7333801;19;162542;-14
2021/12/10 20:36:41;;;;;;;0.98;0.82;;;;;;;;;;7334176;19;154084;-13
2021/12/10 20:39:18;;;;;;;0.70;0.70;;;;;;;;;;7334281;19;153689;-13
2021/12/10 20:41:53;;;;;;;1.00;0.80;;;;;;;;;;7333681;19;161846;-13
2021/12/10 20:44:27;;;;;;;0.80;0.80;;;;;;;;;;7330482;19;162975;-14
2021/12/10 20:47:01;;;;;;;0.75;0.75;;;;;;;;;;7333953;19;154037;-13
2021/12/10 20:49:40;;;;;;;0.82;0.82;;;;;;;;;;7333777;19;153690;-14
2021/12/10 20:52:20;;;;;;;0.93;0.93;;;;;;;;;;7333499;19;161868;-14
2021/12/10 20:54:55;;;;;;;0.70;0.70;;;;;;;;;;7333371;19;162301;-15
2021/12/10 20:57:30;;;;;;;0.75;0.75;;;;;;;;;;7331576;19;154039;-14
2021/12/10 21:00:10;;;;;;;0.90;0.90;;;;;;;;;;7336014;19;153677;-14
2021/12/10 21:02:45;;;;;;;0.98;0.80;;;;;;;;;;7332470;19;161847;-14
2021/12/10 21:05:21;;;;;;;0.70;0.70;;;;;;;;;;7332914;19;162535;-14
2021/12/10 21:07:58;;;;;;;1.48;1.00;;;;;;;;;;7330639;19;153962;-13
2021/12/10 21:10:33;;;;;;;0.95;0.80;;;;;;;;;;7335078;19;153614;-13
2021/12/10 21:13:09;;;;;;;0.95;0.80;;;;;;;;;;7335955;19;161970;-13
2021/12/10 21:15:46;;;;;;;0.75;0.75;;;;;;;;;;7333251;19;162778;-13
2021/12/10 21:18:20;;;;;;;0.90;0.90;;;;;;;;;;7336398;19;154252;-14
2021/12/10 21:20:55;;;;;;;1.50;0.80;;;;;;;;;;7336794;19;153528;-13
2021/12/10 21:23:38;;;;;;;1.10;0.90;;;;;;;;;;7331458;19;161726;-11
2021/12/10 21:26:12;;;;;;;0.97;0.97;;;;;;;;;;7332472;19;162382;-12
2021/12/10 21:28:58;;;;;;;1.55;1.02;;;;;;;;;;7332563;19;153972;-13
2021/12/10 21:31:35;;;;;;;1.42;0.98;;;;;;;;;;7332251;19;154283;-15
2021/12/10 21:34:10;;;;;;;1.65;0.90;;;;;;;;;;7331870;19;161932;-15
2021/12/10 21:39:38;;;;;;;1.27;1.02;;;;;;;;;;7332409;19;154114;-12
2021/12/10 21:42:12;;;;;;;0.90;0.90;;;;;;;;;;7333600;19;153501;-12
2021/12/10 21:44:47;;;;;;;0.90;0.90;;;;;;;;;;7333039;19;161982;-13
2021/12/10 21:47:23;;;;;;;1.02;0.90;;;;;;;;;;7335068;19;162417;-13
2021/12/10 21:49:58;;;;;;;0.90;0.90;;;;;;;;;;7335122;19;154179;-12
2021/12/10 21:52:33;;;;;;;0.85;0.80;;;;;;;;;;7334708;19;153832;-13
2021/12/10 21:55:12;;;;;;;1.00;0.90;;;;;;;;;;7334887;19;161789;-12
2021/12/10 21:57:45;;;;;;;1.20;1.10;;;;;;;;;;7329957;19;162510;-13
2021/12/10 22:00:23;;;;;;;;;;;;;;;;;;7334491;19;153980;-14
2021/12/10 22:03:00;;;;;;;0.82;0.82;;;;;;;;;;7329425;19;153349;-13
2021/12/10 22:05:35;;;;;;;0.80;0.80;;;;;;;;;;7331130;19;161814;-13
2021/12/10 22:08:11;;;;;;;0.90;0.90;;;;;;;;;;7328829;19;162569;-13
2021/12/10 22:10:51;;;;;;;0.77;0.77;;;;;;;;;;7333873;19;154007;-12
2021/12/10 22:13:29;;;;;;;0.90;0.90;;;;;;;;;;7334219;19;153572;-13
2021/12/10 22:16:03;;;;;;;0.95;0.90;;;;;;;;;;7334307;19;162203;-14
2021/12/10 22:18:38;;;;;;;1.30;1.00;;;;;;;;;;7334211;19;162498;-12
2021/12/10 22:21:14;;;;;;;1.27;0.90;;;;;;;;;;7330137;19;154183;-13
2021/12/10 22:23:51;;;;;;;2.88;1.65;;;;;;;;;;7330967;19;153535;-12
2021/12/10 22:26:25;;;;;;;1.63;1.52;;;;;;;;;;7333260;19;161890;-12
2021/12/10 22:29:01;;;;;;;0.90;0.90;;;;;;;;;;7333386;19;162705;-13
2021/12/10 22:31:39;;;;;;;1.30;1.20;;;;;;;;;;7334556;19;153977;-15
2021/12/10 22:34:18;;;;;;;1.15;1.00;;;;;;;;;;7332548;19;153926;-12
2021/12/10 22:36:57;;;;;;;1.23;0.93;;;;;;;;;;7333039;19;161841;-21
2021/12/10 22:39:34;;;;;;;1.42;1.00;;;;;;;;;;7332363;19;162487;-15
2021/12/10 22:42:13;;;;;;;0.80;0.80;;;;;;;;;;7333940;19;154057;-12
2021/12/10 22:44:46;;;;;;;1.45;1.15;;;;;;;;;;7332096;19;153979;-12
2021/12/10 22:47:21;;;;;;;1.10;1.00;;;;;;;;;;7333412;19;161617;-12
2021/12/10 22:49:56;;;;;;;1.90;1.00;;;;;;;;;;7332799;19;162338;-13
2021/12/10 22:52:32;;;;;;;1.02;0.90;;;;;;;;;;7333221;19;154049;-11
2021/12/10 22:55:11;;;;;;;1.08;1.00;;;;;;;;;;7332894;19;153761;-13
2021/12/10 22:57:49;;;;;;;1.23;1.13;;;;;;;;;;7329957;19;161828;-15
2021/12/10 23:00:28;;;;;;;0.70;0.70;;;;;;;;;;7331567;19;162367;-13
2021/12/10 23:03:03;;;;;;;1.13;1.00;;;;;;;;;;7332738;19;154128;-13
2021/12/10 23:05:41;;;;;;;0.90;0.90;;;;;;;;;;7330930;19;153534;-14
2021/12/10 23:08:25;;;;;;;1.33;1.23;;;;;;;;;;7330518;19;161804;-13
2021/12/10 23:10:59;;;;;;;1.58;1.40;;;;;;;;;;7331960;19;162700;-14
2021/12/10 23:13:36;;;;;;;1.52;1.38;;;;;;;;;;7329700;19;154232;-13
2021/12/10 23:16:12;;;;;;;1.20;1.10;;;;;;;;;;7328524;19;153502;-13
2021/12/10 23:18:50;;;;;;;1.58;1.00;;;;;;;;;;7333324;19;161794;-13
2021/12/10 23:21:21;;;;;;;1.20;1.05;;;;;;;;;;7329890;19;162411;-14
2021/12/10 23:24:13;;;;;;;1.30;0.95;;;;;;;;;;7330970;19;154017;-13
2021/12/10 23:26:48;;;;;;;1.02;1.00;;;;;;;;;;7324752;19;153721;-13
2021/12/10 23:29:28;;;;;;;1.42;1.10;;;;;;;;;;7330998;19;161967;-13
2021/12/10 23:32:03;;;;;;;1.00;1.00;;;;;;;;;;7331242;19;162467;-13
2021/12/10 23:34:36;;;;;;;0.98;0.95;;;;;;;;;;7332029;19;154132;-14
2021/12/10 23:37:09;;;;;;;0.85;0.85;;;;;;;;;;7327668;19;153569;-13
2021/12/10 23:39:46;;;;;;;0.90;0.90;;;;;;;;;;7331420;19;161858;-13
2021/12/10 23:42:23;;;;;;;1.05;1.05;;;;;;;;;;7329355;19;162661;-14
2021/12/10 23:44:58;;;;;;;1.02;0.98;;;;;;;;;;7329304;19;154072;-14
2021/12/10 23:47:32;;;;;;;1.60;1.05;;;;;;;;;;7331935;19;153838;-13
2021/12/10 23:50:16;;;;;;;1.48;1.08;;;;;;;;;;7330995;19;162583;-13
2021/12/10 23:52:54;;;;;;;1.15;1.05;;;;;;;;;;7330928;19;162439;-13
2021/12/10 23:55:33;;;;;;;0.90;0.90;;;;;;;;;;7331385;19;153976;-13
2021/12/10 23:58:14;;;;;;;0.80;0.80;;;;;;;;;;7330017;19;153618;-14
